Aviation Digital Data Service (ADDS)

Output produced by METARs form (1209 UTC 16 February 2019)
found at http://www.aviationweather.gov/metar/data/
 
KGED 161154Z AUTO 36005KT 10SM FEW055 OVC070 08/M06 A2985 RMK AO2 RAB03E16 SLP108 P0000 60000 T00781056 10139 20078 51014